Camp Strake, Texas
Current Conditions -  °F | °C
As of 9:53 AM on Friday 24 Oct 2014 (Local Time) from KCXO Reporting Station
Clear Clear  
Wind Chill: 62°   Ceiling: Unl
Heat Index: 62°   Visibility: 10mi
Dew Point: 52°   Wind: 0mph
Humidity: 70%   Direction: NA
Pressure: 30.19"   Gusts: NA
Location:  30.3059°N, 95.4359°W
Report Text: KCXO 241453Z 00000KT 10SM CLR 17/11 A3019 RMK AO2 SLP222 T01670111 51015
Loading
Personal Weather Stations






























Interactive Weather Map
Tropical Storm Tracking
New forecast layout! Learn more

10-Day Weather Forecast

Advertisements
Track Severe Weather on mobile